Terminal Aerodrome Forecast
Issued by NWS Boston, MA

Home | Current Version | Previous Version | Text Only | Print | Product List | Glossary On
Versions: 1 2 3 4 5 6 7 8 9 10 11 12 13 14 15 16 17 18 19 20 21 22 23 24 25 26 27 28 29 30 31 32 33 34 35 36 37 38 39 40 41 42 43 44 45 46
000
FTUS41 KBOX 270750 AAA
TAFBDL
TAF AMD
KBDL 270750Z 2708/2812 01018G25KT 1/2SM SN FG OVC008
     FM271000 36020G32KT 1/2SM SN BLSN FG OVC005
     FM271300 35018G29KT 1/4SM +SN FG OVC008
     FM271800 35018G29KT 1/2SM SN FG OVC008
     FM272100 34017G28KT 1SM -SN BLSN OVC015
     FM272200 34016G28KT 1SM -SN OVC015=

USA.gov is the U.S. government's official web portal to all federal, state and local government web resources and services.